createdAt,value
2023-06-29T00:01:12.209Z,97618.97
2023-06-29T00:03:43.567Z,97619.30
2023-06-29T00:06:11.207Z,97618.34
2023-06-29T00:08:38.685Z,97622.25
2023-06-29T00:11:07.016Z,97616.36
2023-06-29T00:13:34.454Z,97615.95
2023-06-29T00:16:02.884Z,97614.15
2023-06-29T00:18:31.028Z,97613.56
2023-06-29T00:20:58.911Z,97610.14
2023-06-29T00:23:29.339Z,97606.94
2023-06-29T00:25:58.089Z,97607.70
2023-06-29T00:28:25.971Z,97608.02
2023-06-29T00:30:53.472Z,97609.70
2023-06-29T00:33:21.065Z,97612.97
2023-06-29T00:35:48.654Z,97609.36
2023-06-29T00:38:16.417Z,97609.23
2023-06-29T00:40:44.242Z,97614.73
2023-06-29T00:43:12.538Z,97611.06
2023-06-29T00:45:40.056Z,97606.17
2023-06-29T00:48:09.810Z,97606.89
2023-06-29T00:50:38.101Z,97606.79
2023-06-29T00:53:05.606Z,97605.45
2023-06-29T00:55:33.618Z,97598.83
2023-06-29T00:58:01.212Z,97598.88
2023-06-29T01:00:28.736Z,97599.98
2023-06-29T01:05:47.072Z,97600.66
2023-06-29T01:08:24.624Z,97601.58
2023-06-29T01:10:52.871Z,97604.15
2023-06-29T01:13:21.324Z,97603.45
2023-06-29T01:15:49.647Z,97603.48
2023-06-29T01:18:18.489Z,97601.97
2023-06-29T01:20:50.983Z,97597.65
2023-06-29T01:23:27.121Z,97599.79
2023-06-29T01:25:58.250Z,97601.52
2023-06-29T01:28:26.334Z,97599.59
2023-06-29T01:30:53.916Z,97596.61
2023-06-29T01:33:24.447Z,97599.20
2023-06-29T01:35:58.918Z,97599.73
2023-06-29T01:38:32.292Z,97597.46
2023-06-29T01:41:02.692Z,97599.39
2023-06-29T01:43:31.372Z,97598.16
2023-06-29T01:45:59.419Z,97598.01
2023-06-29T01:48:28.439Z,97598.26
2023-06-29T01:50:56.587Z,97597.63
2023-06-29T01:53:24.153Z,97594.63
2023-06-29T01:55:51.848Z,97594.44
2023-06-29T01:58:19.367Z,97597.23
2023-06-29T02:00:47.964Z,97593.02
2023-06-29T02:03:16.054Z,97590.37
2023-06-29T02:05:44.150Z,97584.48
2023-06-29T02:08:12.645Z,97586.73
2023-06-29T02:10:41.608Z,97589.33
2023-06-29T02:13:09.445Z,97588.58
2023-06-29T02:15:37.186Z,97594.55
2023-06-29T02:18:06.171Z,97598.19
2023-06-29T02:20:33.553Z,97600.08
2023-06-29T02:23:01.233Z,97599.54
2023-06-29T02:25:29.287Z,97601.97
2023-06-29T02:27:56.893Z,97600.20
2023-06-29T02:30:24.697Z,97601.33
2023-06-29T02:32:52.716Z,97603.81
2023-06-29T02:35:20.033Z,97605.94
2023-06-29T02:37:47.606Z,97608.48
2023-06-29T02:40:15.251Z,97609.41
2023-06-29T02:42:42.804Z,97613.98
2023-06-29T02:45:10.683Z,97614.29
2023-06-29T02:47:38.437Z,97617.37
2023-06-29T02:50:06.495Z,97617.45
2023-06-29T02:52:33.892Z,97617.38
2023-06-29T02:55:01.439Z,97616.27
2023-06-29T02:57:28.743Z,97616.66
2023-06-29T02:59:56.093Z,97616.94
2023-06-29T03:02:23.798Z,97627.13
2023-06-29T03:04:51.170Z,97628.64
2023-06-29T03:07:19.286Z,97635.91
2023-06-29T03:09:46.984Z,97637.77
2023-06-29T03:12:14.349Z,97639.41
2023-06-29T03:14:41.654Z,97636.95
2023-06-29T03:17:10.126Z,97633.97
2023-06-29T03:19:37.691Z,97639.48
2023-06-29T03:22:06.137Z,97643.27
2023-06-29T03:24:33.833Z,97644.48
2023-06-29T03:27:01.143Z,97646.11
2023-06-29T03:29:29.117Z,97645.04
2023-06-29T03:31:56.717Z,97645.80
2023-06-29T03:34:24.100Z,97644.76
2023-06-29T03:36:51.607Z,97651.07
2023-06-29T03:39:20.956Z,97653.60
2023-06-29T03:41:48.317Z,97652.13
2023-06-29T03:44:15.878Z,97656.39
2023-06-29T03:46:43.812Z,97658.33
2023-06-29T03:49:11.325Z,97662.19
2023-06-29T03:51:38.762Z,97661.55
2023-06-29T03:54:06.409Z,97660.33
2023-06-29T03:56:34.568Z,97657.07
2023-06-29T03:59:02.471Z,97659.27
2023-06-29T04:01:30.923Z,97663.71
2023-06-29T04:03:58.323Z,97664.28
2023-06-29T04:06:25.870Z,97666.49
2023-06-29T04:08:53.354Z,97667.36
2023-06-29T04:11:21.282Z,97665.17
2023-06-29T04:13:48.848Z,97666.81
2023-06-29T04:16:16.455Z,97673.53
2023-06-29T04:18:43.902Z,97676.73
2023-06-29T04:21:11.509Z,97678.00
2023-06-29T04:23:39.116Z,97674.55
2023-06-29T04:27:06.525Z,97679.17
2023-06-29T04:30:17.393Z,97683.04
2023-06-29T04:33:17.231Z,97683.45
2023-06-29T04:35:51.911Z,97683.41
2023-06-29T04:38:40.191Z,97686.02
2023-06-29T04:41:49.912Z,97686.44
2023-06-29T04:45:17.079Z,97688.61
2023-06-29T04:48:47.245Z,97693.36
2023-06-29T04:51:51.478Z,97688.60
2023-06-29T04:54:40.207Z,97688.41
2023-06-29T04:57:39.664Z,97692.06
2023-06-29T05:31:32.965Z,97691.63
2023-06-29T05:34:06.114Z,97694.40
2023-06-29T05:36:34.018Z,97692.58
2023-06-29T05:39:01.504Z,97694.05
2023-06-29T05:41:40.860Z,97701.27
2023-06-29T05:44:13.611Z,97700.95
2023-06-29T05:47:20.868Z,97705.02
2023-06-29T05:50:17.847Z,97703.27
2023-06-29T05:53:09.352Z,97706.73
2023-06-29T05:55:57.456Z,97709.46
2023-06-29T05:59:07.969Z,97709.53
2023-06-29T06:02:00.618Z,97709.77
2023-06-29T06:04:52.733Z,97709.30
2023-06-29T06:08:28.984Z,97709.54
2023-06-29T06:11:16.462Z,97706.09
2023-06-29T06:13:46.149Z,97707.25
2023-06-29T06:16:14.244Z,97713.16
2023-06-29T06:19:04.703Z,97712.85
2023-06-29T06:21:55.791Z,97708.27
2023-06-29T06:24:28.305Z,97713.21
2023-06-29T06:27:16.131Z,97714.89
2023-06-29T06:29:43.896Z,97715.71
2023-06-29T06:32:11.576Z,97717.98
2023-06-29T06:34:40.335Z,97716.86
2023-06-29T06:37:08.557Z,97719.63
2023-06-29T06:39:36.051Z,97720.86
2023-06-29T06:42:03.537Z,97720.83
2023-06-29T06:44:32.016Z,97719.31
2023-06-29T06:46:59.710Z,97722.70
2023-06-29T06:49:27.601Z,97727.02
2023-06-29T06:51:55.161Z,97725.02
2023-06-29T06:54:22.891Z,97724.50
2023-06-29T06:56:50.649Z,97725.81
2023-06-29T06:59:18.759Z,97723.38
2023-06-29T07:01:46.365Z,97723.76
2023-06-29T07:04:14.144Z,97725.98
2023-06-29T07:06:41.562Z,97722.05
2023-06-29T07:09:11.067Z,97720.25
2023-06-29T07:11:41.042Z,97726.55
2023-06-29T07:14:08.482Z,97725.00
2023-06-29T07:16:36.004Z,97721.12
2023-06-29T07:21:41.036Z,97726.52
2023-06-29T07:24:10.634Z,97726.63
2023-06-29T07:26:45.042Z,97720.11
2023-06-29T07:29:12.760Z,97717.61
2023-06-29T07:31:41.361Z,97722.83
2023-06-29T07:34:09.207Z,97722.81
2023-06-29T07:36:38.326Z,97724.75
2023-06-29T07:39:10.605Z,97725.60
2023-06-29T07:41:38.874Z,97730.58
2023-06-29T07:44:06.886Z,97734.98
2023-06-29T07:46:36.772Z,97729.21
2023-06-29T07:49:05.433Z,97726.63
2023-06-29T07:51:56.397Z,97723.39
2023-06-29T07:54:24.643Z,97727.21
2023-06-29T08:00:46.524Z,97724.40
2023-06-29T08:03:14.565Z,97726.95
2023-06-29T08:08:14.213Z,97727.91
2023-06-29T08:10:42.689Z,97726.83
2023-06-29T08:13:10.717Z,97725.88
2023-06-29T08:15:38.245Z,97725.85
2023-06-29T08:18:05.724Z,97726.84
2023-06-29T08:20:33.002Z,97728.81
2023-06-29T08:23:00.844Z,97728.84
2023-06-29T08:25:29.095Z,97730.35
2023-06-29T08:28:59.800Z,97731.27
2023-06-29T08:32:54.270Z,97730.56
2023-06-29T08:37:01.349Z,97730.38
2023-06-29T08:40:56.619Z,97734.06
2023-06-29T08:44:48.174Z,97734.98
2023-06-29T08:48:44.070Z,97732.23
2023-06-29T09:00:52.258Z,97738.52
2023-06-29T09:04:49.173Z,97740.13
2023-06-29T09:08:45.547Z,97742.17
2023-06-29T09:12:33.333Z,97743.00
2023-06-29T09:22:55.715Z,97748.66
2023-06-29T09:25:33.813Z,97749.47
2023-06-29T09:28:55.089Z,97751.51
2023-06-29T09:32:14.689Z,97755.32
2023-06-29T09:34:59.851Z,97756.08
2023-06-29T09:37:31.881Z,97761.34
2023-06-29T09:40:26.643Z,97757.39
2023-06-29T09:43:19.857Z,97753.74
2023-06-29T09:46:37.360Z,97757.29
2023-06-29T09:49:11.104Z,97753.79
2023-06-29T09:52:30.713Z,97751.30
2023-06-29T09:55:59.310Z,97750.27
2023-06-29T09:59:48.313Z,97748.50
2023-06-29T10:02:56.952Z,97746.84
2023-06-29T10:06:24.614Z,97750.27
2023-06-29T10:10:18.913Z,97742.12
2023-06-29T10:13:48.233Z,97733.49
2023-06-29T10:17:23.719Z,97725.69
2023-06-29T10:24:30.882Z,97725.21
2023-06-29T10:27:59.801Z,97726.04
2023-06-29T10:31:34.739Z,97726.19
2023-06-29T10:34:25.207Z,97726.90
2023-06-29T10:37:59.308Z,97724.83
2023-06-29T10:41:52.015Z,97716.69
2023-06-29T10:44:55.965Z,97714.93
2023-06-29T10:47:45.111Z,97709.80
2023-06-29T10:50:20.040Z,97703.80
2023-06-29T10:52:51.878Z,97699.81
2023-06-29T10:55:24.287Z,97702.00
2023-06-29T10:58:22.406Z,97701.49
2023-06-29T11:00:57.036Z,97696.16
2023-06-29T11:03:26.435Z,97691.77
2023-06-29T11:05:56.494Z,97690.14
2023-06-29T11:08:26.047Z,97690.54
2023-06-29T11:10:54.405Z,97688.92
2023-06-29T11:13:41.560Z,97691.27
2023-06-29T11:16:31.543Z,97694.08
2023-06-29T11:19:02.206Z,97687.95
2023-06-29T11:21:29.843Z,97686.75
2023-06-29T11:24:03.804Z,97687.27
2023-06-29T11:26:31.324Z,97680.67
2023-06-29T11:28:58.810Z,97673.71
2023-06-29T11:31:32.111Z,97675.48
2023-06-29T11:34:01.872Z,97671.33
2023-06-29T11:41:43.437Z,97672.25
2023-06-29T11:45:31.886Z,97666.30
2023-06-29T11:49:38.290Z,97665.19
2023-06-29T11:53:34.455Z,97663.82
2023-06-29T11:57:37.528Z,97660.54
2023-06-29T12:01:31.012Z,97662.20
2023-06-29T12:05:22.276Z,97655.67
2023-06-29T12:09:14.489Z,97649.70
2023-06-29T12:13:11.482Z,97644.66
2023-06-29T12:20:56.414Z,97637.55
2023-06-29T12:24:50.841Z,97631.08
2023-06-29T12:28:38.945Z,97626.23
2023-06-29T12:32:35.905Z,97624.31
2023-06-29T12:36:28.875Z,97627.80
2023-06-29T12:40:16.881Z,97625.52
2023-06-29T12:51:59.380Z,97619.99
2023-06-29T12:55:48.874Z,97619.20
2023-06-29T13:03:40.740Z,97609.30
2023-06-29T13:07:42.469Z,97604.30
2023-06-29T13:11:13.932Z,97600.01
2023-06-29T13:15:01.764Z,97601.98
2023-06-29T13:18:51.524Z,97598.79
2023-06-29T13:33:51.646Z,97596.89
2023-06-29T13:37:39.761Z,97598.15
2023-06-29T13:41:29.122Z,97597.33
2023-06-29T13:45:39.198Z,97593.85
2023-06-29T13:49:39.254Z,97585.46
2023-06-29T13:57:04.405Z,97583.71
2023-06-29T14:04:53.523Z,97575.65
2023-06-29T14:08:41.775Z,97575.21
2023-06-29T14:12:29.682Z,97569.19
2023-06-29T14:16:25.125Z,97560.38
2023-06-29T14:20:19.411Z,97553.52
2023-06-29T14:24:25.220Z,97551.48
2023-06-29T14:40:21.314Z,97529.90
2023-06-29T14:52:06.699Z,97522.41
2023-06-29T14:54:54.565Z,97520.76
2023-06-29T14:57:24.883Z,97519.61
2023-06-29T14:59:52.488Z,97515.85
2023-06-29T15:02:21.183Z,97510.19
2023-06-29T15:04:50.804Z,97511.90
2023-06-29T15:07:18.702Z,97507.52
2023-06-29T15:09:48.312Z,97508.50
2023-06-29T15:12:18.088Z,97506.36
2023-06-29T15:14:45.737Z,97504.70
2023-06-29T15:17:13.217Z,97500.50
2023-06-29T15:19:41.132Z,97499.34
2023-06-29T15:22:09.963Z,97491.70
2023-06-29T15:24:39.772Z,97495.42
2023-06-29T15:27:38.763Z,97493.44
2023-06-29T15:30:10.843Z,97492.25
2023-06-29T15:32:38.226Z,97490.67
2023-06-29T15:35:40.049Z,97485.61
2023-06-29T15:38:07.637Z,97486.77
2023-06-29T15:40:35.674Z,97483.91
2023-06-29T15:43:03.133Z,97486.66
2023-06-29T15:45:30.662Z,97481.33
2023-06-29T15:47:58.797Z,97480.59
2023-06-29T15:50:26.437Z,97486.45
2023-06-29T15:52:59.501Z,97480.52
2023-06-29T15:55:28.371Z,97475.64
2023-06-29T15:57:55.801Z,97477.16
2023-06-29T16:00:25.166Z,97480.34
2023-06-29T16:02:54.690Z,97475.86
2023-06-29T16:05:32.736Z,97468.98
2023-06-29T16:08:02.710Z,97468.86
2023-06-29T16:10:31.765Z,97466.58
2023-06-29T16:12:59.572Z,97465.64
2023-06-29T16:15:28.729Z,97460.16
2023-06-29T16:17:58.790Z,97462.55
2023-06-29T16:20:27.185Z,97468.35
2023-06-29T16:23:08.625Z,97461.41
2023-06-29T16:25:59.576Z,97458.56
2023-06-29T16:28:47.206Z,97455.46
2023-06-29T16:31:14.816Z,97457.88
2023-06-29T16:33:51.532Z,97459.38
2023-06-29T16:36:19.369Z,97458.94
2023-06-29T16:38:47.089Z,97458.39
2023-06-29T16:41:14.693Z,97456.33
2023-06-29T16:43:44.467Z,97455.94
2023-06-29T16:46:12.378Z,97456.52
2023-06-29T16:48:40.017Z,97454.21
2023-06-29T16:51:07.558Z,97458.90
2023-06-29T16:53:52.483Z,97457.23
2023-06-29T16:56:20.658Z,97459.27
2023-06-29T16:58:48.089Z,97461.44
2023-06-29T17:01:15.770Z,97458.89
2023-06-29T17:03:44.702Z,97459.66
2023-06-29T17:06:12.642Z,97463.38
2023-06-29T17:08:41.553Z,97463.27
2023-06-29T17:11:09.222Z,97465.92
2023-06-29T17:13:36.654Z,97466.13
2023-06-29T17:16:04.868Z,97458.81
2023-06-29T17:18:32.697Z,97460.68
2023-06-29T17:21:00.361Z,97458.14
2023-06-29T17:23:27.770Z,97462.09
2023-06-29T17:25:56.470Z,97460.36
2023-06-29T17:28:24.037Z,97457.21
2023-06-29T17:30:53.732Z,97460.96
2023-06-29T17:33:22.457Z,97462.91
2023-06-29T17:35:51.197Z,97460.14
2023-06-29T17:38:18.571Z,97455.49
2023-06-29T17:40:46.802Z,97449.52
2023-06-29T17:43:34.686Z,97449.96
2023-06-29T17:46:12.972Z,97453.25
2023-06-29T17:48:40.535Z,97458.27
2023-06-29T17:51:39.516Z,97453.70
2023-06-29T17:54:11.028Z,97455.46
2023-06-29T17:56:39.239Z,97448.79
2023-06-29T17:59:46.023Z,97446.58
2023-06-29T18:02:23.651Z,97444.02
2023-06-29T18:04:51.557Z,97450.30
2023-06-29T18:07:26.641Z,97447.34
2023-06-29T18:09:56.505Z,97446.46
2023-06-29T18:12:25.084Z,97452.65
2023-06-29T18:14:55.229Z,97453.19
2023-06-29T18:17:45.138Z,97454.45
2023-06-29T18:20:17.000Z,97453.52
2023-06-29T18:22:46.067Z,97455.05
2023-06-29T18:25:14.288Z,97454.83
2023-06-29T18:27:41.888Z,97453.58
2023-06-29T18:30:10.564Z,97454.16
2023-06-29T18:32:39.338Z,97453.52
2023-06-29T18:35:07.555Z,97456.47
2023-06-29T18:37:39.112Z,97452.52
2023-06-29T18:40:09.262Z,97456.13
2023-06-29T18:42:38.416Z,97452.13
2023-06-29T18:45:09.078Z,97451.39
2023-06-29T18:47:46.363Z,97450.99
2023-06-29T18:50:14.378Z,97448.87
2023-06-29T18:52:42.475Z,97451.06
2023-06-29T18:55:10.380Z,97454.92
2023-06-29T18:57:38.463Z,97457.53
2023-06-29T19:00:10.637Z,97460.58
2023-06-29T19:02:46.072Z,97464.66
2023-06-29T19:05:14.226Z,97465.83
2023-06-29T19:07:41.942Z,97466.66
2023-06-29T19:10:12.369Z,97468.52
2023-06-29T19:12:42.358Z,97471.08
2023-06-29T19:15:11.408Z,97470.57
2023-06-29T19:17:40.732Z,97472.61
2023-06-29T19:20:09.557Z,97470.63
2023-06-29T19:22:39.653Z,97474.30
2023-06-29T19:25:08.743Z,97475.64
2023-06-29T19:27:36.348Z,97475.58
2023-06-29T19:30:06.421Z,97474.94
2023-06-29T19:32:35.458Z,97476.99
2023-06-29T19:35:17.145Z,97478.80
2023-06-29T19:37:54.670Z,97477.45
2023-06-29T19:40:22.803Z,97479.36
2023-06-29T19:42:52.438Z,97481.22
2023-06-29T19:45:24.373Z,97479.25
2023-06-29T19:47:54.968Z,97482.44
2023-06-29T19:50:25.502Z,97482.30
2023-06-29T19:52:53.681Z,97486.61
2023-06-29T19:55:21.371Z,97488.23
2023-06-29T19:57:49.538Z,97491.84
2023-06-29T20:00:20.960Z,97490.89
2023-06-29T20:02:49.788Z,97494.46
2023-06-29T20:05:17.451Z,97494.70
2023-06-29T20:07:45.456Z,97496.13
2023-06-29T20:10:13.446Z,97499.48
2023-06-29T20:12:41.286Z,97497.80
2023-06-29T20:15:11.985Z,97499.30
2023-06-29T20:17:39.542Z,97496.55
2023-06-29T20:20:07.901Z,97496.47
2023-06-29T20:22:35.404Z,97493.70
2023-06-29T20:25:02.993Z,97496.16
2023-06-29T20:27:30.629Z,97496.58
2023-06-29T20:29:58.481Z,97495.92
2023-06-29T20:32:26.193Z,97495.63
2023-06-29T20:34:54.133Z,97492.91
2023-06-29T20:37:22.155Z,97497.25
2023-06-29T20:39:49.804Z,97494.73
2023-06-29T20:42:17.294Z,97494.55
2023-06-29T20:44:49.596Z,97500.81
2023-06-29T20:47:20.573Z,97502.69
2023-06-29T20:49:48.196Z,97507.64
2023-06-29T20:52:15.694Z,97505.05
2023-06-29T20:54:43.186Z,97503.10
2023-06-29T20:57:11.524Z,97501.19
2023-06-29T20:59:38.945Z,97499.11
2023-06-29T21:02:06.535Z,97500.42
2023-06-29T21:04:34.497Z,97496.88
2023-06-29T21:07:02.634Z,97494.42
2023-06-29T21:09:29.891Z,97498.09
2023-06-29T21:11:57.422Z,97503.94
2023-06-29T21:14:28.023Z,97505.95
2023-06-29T21:16:55.708Z,97506.47
2023-06-29T21:19:23.535Z,97504.34
2023-06-29T21:21:51.373Z,97506.16
2023-06-29T21:24:18.947Z,97502.42
2023-06-29T21:26:46.458Z,97501.48
2023-06-29T21:29:33.350Z,97500.69
2023-06-29T21:32:28.556Z,97501.74
2023-06-29T21:35:16.239Z,97500.11
2023-06-29T21:38:25.761Z,97497.77
2023-06-29T21:41:15.573Z,97500.61
2023-06-29T21:43:57.068Z,97502.20
2023-06-29T21:47:06.319Z,97500.42
2023-06-29T21:49:38.201Z,97499.31
2023-06-29T21:52:07.733Z,97497.55
2023-06-29T21:54:59.987Z,97494.58
2023-06-29T21:57:35.541Z,97493.52
2023-06-29T22:00:35.196Z,97495.77
2023-06-29T22:03:37.881Z,97494.52
2023-06-29T22:06:08.257Z,97491.92
2023-06-29T22:08:39.281Z,97492.42
2023-06-29T22:16:04.506Z,97499.19
2023-06-29T22:19:52.438Z,97498.56
2023-06-29T22:23:39.369Z,97499.98
2023-06-29T22:27:26.341Z,97502.39
2023-06-29T22:30:53.487Z,97500.88
2023-06-29T22:34:03.633Z,97493.80
2023-06-29T22:37:19.857Z,97492.09
2023-06-29T22:41:06.954Z,97485.73
2023-06-29T22:44:39.256Z,97488.39
2023-06-29T22:48:18.507Z,97485.03
2023-06-29T22:52:05.459Z,97483.23
2023-06-29T22:55:52.464Z,97484.27
2023-06-29T22:59:23.901Z,97486.88
2023-06-29T23:02:33.036Z,97486.70
2023-06-29T23:06:19.976Z,97485.66
2023-06-29T23:08:55.620Z,97484.48
2023-06-29T23:12:04.919Z,97484.95
2023-06-29T23:15:31.600Z,97481.81
2023-06-29T23:18:42.859Z,97479.44
2023-06-29T23:22:11.495Z,97479.83
2023-06-29T23:25:58.416Z,97477.70
2023-06-29T23:29:45.278Z,97474.20
2023-06-29T23:33:15.820Z,97473.92
2023-06-29T23:36:43.034Z,97474.17
2023-06-29T23:40:10.745Z,97467.23
2023-06-29T23:43:27.226Z,97469.88
2023-06-29T23:46:58.891Z,97469.52
2023-06-29T23:50:45.901Z,97468.80
2023-06-29T23:54:32.866Z,97473.49
2023-06-29T23:57:59.862Z,97472.83
